sensor_id;sensor_type;location;lat;lon;timestamp;pressure;altitude;pressure_sealevel;temperature;humidity
21086;BME280;34247;50.064;19.970;2022-08-03T00:00:38;99522.25;;;21.63;90.26
21086;BME280;34247;50.064;19.970;2022-08-03T00:01:43;99510.59;;;21.54;90.25
21086;BME280;34247;50.064;19.970;2022-08-03T00:02:47;99521.41;;;21.62;90.39
21086;BME280;34247;50.064;19.970;2022-08-03T00:03:51;99518.88;;;21.53;91.01
21086;BME280;34247;50.064;19.970;2022-08-03T00:04:55;99511.63;;;21.45;91.13
21086;BME280;34247;50.064;19.970;2022-08-03T00:05:58;99499.28;;;21.34;91.33
21086;BME280;34247;50.064;19.970;2022-08-03T00:07:07;99521.41;;;21.46;91.56
21086;BME280;34247;50.064;19.970;2022-08-03T00:08:12;99528.50;;;21.47;91.59
21086;BME280;34247;50.064;19.970;2022-08-03T00:09:22;99510.94;;;21.35;92.12
21086;BME280;34247;50.064;19.970;2022-08-03T00:10:26;99517.34;;;21.42;91.99
21086;BME280;34247;50.064;19.970;2022-08-03T00:11:30;99523.28;;;21.45;91.92
21086;BME280;34247;50.064;19.970;2022-08-03T00:12:34;99513.31;;;21.38;92.09
21086;BME280;34247;50.064;19.970;2022-08-03T00:13:39;99522.44;;;21.45;92.10
21086;BME280;34247;50.064;19.970;2022-08-03T00:14:42;99525.44;;;21.50;91.67
21086;BME280;34247;50.064;19.970;2022-08-03T00:15:46;99523.44;;;21.52;91.74
21086;BME280;34247;50.064;19.970;2022-08-03T00:16:50;99513.31;;;21.46;91.77
21086;BME280;34247;50.064;19.970;2022-08-03T00:17:54;99532.88;;;21.56;91.86
21086;BME280;34247;50.064;19.970;2022-08-03T00:18:58;99513.81;;;21.50;91.57
21086;BME280;34247;50.064;19.970;2022-08-03T00:20:03;99523.75;;;21.57;91.68
21086;BME280;34247;50.064;19.970;2022-08-03T00:21:08;99524.94;;;21.55;91.77
21086;BME280;34247;50.064;19.970;2022-08-03T00:22:12;99526.47;;;21.57;91.67
21086;BME280;34247;50.064;19.970;2022-08-03T00:23:16;99522.91;;;21.57;91.67
21086;BME280;34247;50.064;19.970;2022-08-03T00:24:20;99526.47;;;21.57;91.65
21086;BME280;34247;50.064;19.970;2022-08-03T00:25:24;99526.47;;;21.57;91.61
21086;BME280;34247;50.064;19.970;2022-08-03T00:26:28;99520.38;;;21.55;91.67
21086;BME280;34247;50.064;19.970;2022-08-03T00:27:33;99524.44;;;21.59;91.55
21086;BME280;34247;50.064;19.970;2022-08-03T00:28:38;99527.31;;;21.58;91.77
21086;BME280;34247;50.064;19.970;2022-08-03T00:29:41;99526.47;;;21.57;91.58
21086;BME280;34247;50.064;19.970;2022-08-03T00:31:02;99527.47;;;21.56;91.73
21086;BME280;34247;50.064;19.970;2022-08-03T00:32:06;99529.50;;;21.54;91.85
21086;BME280;34247;50.064;19.970;2022-08-03T00:33:14;99526.16;;;21.52;91.70
21086;BME280;34247;50.064;19.970;2022-08-03T00:34:18;99517.03;;;21.45;92.04
21086;BME280;34247;50.064;19.970;2022-08-03T00:35:42;99532.22;;;21.54;91.60
21086;BME280;34247;50.064;19.970;2022-08-03T00:36:53;99519.03;;;21.43;91.76
21086;BME280;34247;50.064;19.970;2022-08-03T00:37:58;99530.00;;;21.50;91.91
21086;BME280;34247;50.064;19.970;2022-08-03T00:39:02;99529.16;;;21.49;91.90
21086;BME280;34247;50.064;19.970;2022-08-03T00:40:08;99523.09;;;21.47;92.01
21086;BME280;34247;50.064;19.970;2022-08-03T00:41:12;99529.50;;;21.46;92.14
21086;BME280;34247;50.064;19.970;2022-08-03T00:42:18;99525.13;;;21.45;92.13
21086;BME280;34247;50.064;19.970;2022-08-03T00:43:25;99524.44;;;21.43;92.26
21086;BME280;34247;50.064;19.970;2022-08-03T00:44:42;99531.88;;;21.41;92.58
21086;BME280;34247;50.064;19.970;2022-08-03T00:45:46;99526.47;;;21.41;92.41
21086;BME280;34247;50.064;19.970;2022-08-03T00:46:53;99531.69;;;21.42;92.51
21086;BME280;34247;50.064;19.970;2022-08-03T00:47:57;99536.25;;;21.42;92.47
21086;BME280;34247;50.064;19.970;2022-08-03T00:49:01;99535.59;;;21.40;92.63
21086;BME280;34247;50.064;19.970;2022-08-03T00:50:06;99527.47;;;21.40;92.50
21086;BME280;34247;50.064;19.970;2022-08-03T00:51:10;99531.03;;;21.40;92.46
21086;BME280;34247;50.064;19.970;2022-08-03T00:52:14;99540.81;;;21.41;92.69
21086;BME280;34247;50.064;19.970;2022-08-03T00:53:20;99538.09;;;21.41;92.64
21086;BME280;34247;50.064;19.970;2022-08-03T00:54:25;99531.88;;;21.41;92.56
21086;BME280;34247;50.064;19.970;2022-08-03T00:55:30;99540.50;;;21.44;92.55
21086;BME280;34247;50.064;19.970;2022-08-03T00:56:35;99541.34;;;21.45;92.45
21086;BME280;34247;50.064;19.970;2022-08-03T00:57:42;99532.88;;;21.40;92.49
21086;BME280;34247;50.064;19.970;2022-08-03T00:58:46;99536.94;;;21.44;92.51
21086;BME280;34247;50.064;19.970;2022-08-03T00:59:50;99541.81;;;21.40;92.66
21086;BME280;34247;50.064;19.970;2022-08-03T01:00:54;99542.84;;;21.39;92.69
21086;BME280;34247;50.064;19.970;2022-08-03T01:01:58;99532.03;;;21.39;92.71
21086;BME280;34247;50.064;19.970;2022-08-03T01:03:02;99530.84;;;21.34;92.77
21086;BME280;34247;50.064;19.970;2022-08-03T01:04:06;99546.38;;;21.40;92.44
21086;BME280;34247;50.064;19.970;2022-08-03T01:05:10;99543.84;;;21.38;92.28
21086;BME280;34247;50.064;19.970;2022-08-03T01:06:33;99532.72;;;21.33;92.17
21086;BME280;34247;50.064;19.970;2022-08-03T01:09:43;99522.03;;;21.24;91.52
21086;BME280;34247;50.064;19.970;2022-08-03T01:11:11;99537.75;;;21.28;91.43
21086;BME280;34247;50.064;19.970;2022-08-03T01:14:09;99535.38;;;21.25;91.06
21086;BME280;34247;50.064;19.970;2022-08-03T01:15:37;99535.53;;;21.24;90.90
21086;BME280;34247;50.064;19.970;2022-08-03T01:16:59;99525.06;;;21.20;90.86
21086;BME280;34247;50.064;19.970;2022-08-03T01:18:30;99531.31;;;21.21;90.78
21086;BME280;34247;50.064;19.970;2022-08-03T01:19:48;99536.88;;;21.19;90.59
21086;BME280;34247;50.064;19.970;2022-08-03T01:20:57;99533.81;;;21.14;90.68
21086;BME280;34247;50.064;19.970;2022-08-03T01:24:18;99533.81;;;21.14;90.67
21086;BME280;34247;50.064;19.970;2022-08-03T01:26:13;99539.75;;;21.18;90.20
21086;BME280;34247;50.064;19.970;2022-08-03T01:30:12;99536.03;;;21.11;89.85
21086;BME280;34247;50.064;19.970;2022-08-03T01:31:25;99542.59;;;21.08;89.97
21086;BME280;34247;50.064;19.970;2022-08-03T01:32:45;99544.28;;;21.09;90.07
21086;BME280;34247;50.064;19.970;2022-08-03T01:34:09;99540.88;;;21.07;89.76
21086;BME280;34247;50.064;19.970;2022-08-03T01:35:27;99529.59;;;20.96;89.89
21086;BME280;34247;50.064;19.970;2022-08-03T01:36:41;99541.25;;;21.04;89.94
21086;BME280;34247;50.064;19.970;2022-08-03T01:37:57;99539.88;;;21.00;89.96
21086;BME280;34247;50.064;19.970;2022-08-03T01:39:05;99537.16;;;21.00;89.93
21086;BME280;34247;50.064;19.970;2022-08-03T01:40:15;99512.00;;;20.83;89.95
21086;BME280;34247;50.064;19.970;2022-08-03T01:41:35;99535.34;;;21.01;90.23
21086;BME280;34247;50.064;19.970;2022-08-03T01:42:41;99537.16;;;21.00;89.94
21086;BME280;34247;50.064;19.970;2022-08-03T01:43:49;99523.00;;;20.90;89.91
21086;BME280;34247;50.064;19.970;2022-08-03T01:45:16;99538.19;;;20.99;89.92
21086;BME280;34247;50.064;19.970;2022-08-03T01:46:23;99535.66;;;20.98;90.10
21086;BME280;34247;50.064;19.970;2022-08-03T01:47:30;99532.59;;;20.92;90.09
21086;BME280;34247;50.064;19.970;2022-08-03T01:48:38;99503.22;;;20.73;90.24
21086;BME280;34247;50.064;19.970;2022-08-03T01:49:45;99536.84;;;20.95;90.36
21086;BME280;34247;50.064;19.970;2022-08-03T01:50:53;99536.84;;;20.95;90.25
21086;BME280;34247;50.064;19.970;2022-08-03T01:51:59;99527.38;;;20.91;90.22
21086;BME280;34247;50.064;19.970;2022-08-03T01:53:09;99512.84;;;20.84;90.36
21086;BME280;34247;50.064;19.970;2022-08-03T01:54:15;99534.97;;;20.96;90.18
21086;BME280;34247;50.064;19.970;2022-08-03T01:55:22;99529.75;;;20.94;90.18
21086;BME280;34247;50.064;19.970;2022-08-03T01:56:30;99527.19;;;20.92;90.20
21086;BME280;34247;50.064;19.970;2022-08-03T01:57:37;99530.91;;;20.91;90.38
21086;BME280;34247;50.064;19.970;2022-08-03T01:59:03;99529.41;;;20.89;90.20
21086;BME280;34247;50.064;19.970;2022-08-03T02:00:09;99527.72;;;20.88;90.33
21086;BME280;34247;50.064;19.970;2022-08-03T02:01:15;99529.75;;;20.86;90.42
21086;BME280;34247;50.064;19.970;2022-08-03T02:02:20;99509.13;;;20.77;90.60
21086;BME280;34247;50.064;19.970;2022-08-03T02:03:40;99523.16;;;20.80;90.73
21086;BME280;34247;50.064;19.970;2022-08-03T02:05:07;99521.47;;;20.79;90.70
21086;BME280;34247;50.064;19.970;2022-08-03T02:06:15;99530.03;;;20.75;90.88
21086;BME280;34247;50.064;19.970;2022-08-03T02:07:42;99525.66;;;20.74;91.04
21086;BME280;34247;50.064;19.970;2022-08-03T02:08:50;99530.50;;;20.70;91.18
21086;BME280;34247;50.064;19.970;2022-08-03T02:09:57;99525.13;;;20.70;91.46
21086;BME280;34247;50.064;19.970;2022-08-03T02:11:03;99527.69;;;20.72;91.67
21086;BME280;34247;50.064;19.970;2022-08-03T02:12:10;99539.44;;;20.71;91.84
21086;BME280;34247;50.064;19.970;2022-08-03T02:13:18;99503.50;;;20.54;91.66
21086;BME280;34247;50.064;19.970;2022-08-03T02:14:23;99530.38;;;20.72;91.64
21086;BME280;34247;50.064;19.970;2022-08-03T02:15:31;99527.97;;;20.69;91.86
21086;BME280;34247;50.064;19.970;2022-08-03T02:16:37;99531.53;;;20.69;91.99
21086;BME280;34247;50.064;19.970;2022-08-03T02:17:43;99532.19;;;20.63;92.61
21086;BME280;34247;50.064;19.970;2022-08-03T02:18:48;99530.84;;;20.67;92.40
21086;BME280;34247;50.064;19.970;2022-08-03T02:19:55;99524.78;;;20.65;92.76
21086;BME280;34247;50.064;19.970;2022-08-03T02:21:02;99527.63;;;20.63;93.45
21086;BME280;34247;50.064;19.970;2022-08-03T02:22:14;99528.31;;;20.65;93.21
21086;BME280;34247;50.064;19.970;2022-08-03T02:23:19;99528.31;;;20.65;93.25
21086;BME280;34247;50.064;19.970;2022-08-03T02:24:23;99532.88;;;20.65;93.32
21086;BME280;34247;50.064;19.970;2022-08-03T02:25:29;99508.03;;;20.53;93.16
21086;BME280;34247;50.064;19.970;2022-08-03T02:26:37;99525.94;;;20.62;93.55
21086;BME280;34247;50.064;19.970;2022-08-03T02:27:51;99524.94;;;20.63;93.56
21086;BME280;34247;50.064;19.970;2022-08-03T02:29:10;99531.03;;;20.65;93.65
21086;BME280;34247;50.064;19.970;2022-08-03T02:30:17;99523.59;;;20.68;93.20
21086;BME280;34247;50.064;19.970;2022-08-03T02:31:28;99525.28;;;20.69;93.39
21086;BME280;34247;50.064;19.970;2022-08-03T02:32:40;99529.66;;;20.70;93.41
21086;BME280;34247;50.064;19.970;2022-08-03T02:34:00;99523.13;;;20.72;93.28
21086;BME280;34247;50.064;19.970;2022-08-03T02:35:11;99523.25;;;20.71;92.91
21086;BME280;34247;50.064;19.970;2022-08-03T02:36:22;99513.31;;;20.71;92.97
21086;BME280;34247;50.064;19.970;2022-08-03T02:37:33;99527.50;;;20.73;92.82
21086;BME280;34247;50.064;19.970;2022-08-03T02:38:42;99531.22;;;20.72;93.11
21086;BME280;34247;50.064;19.970;2022-08-03T02:39:49;99527.69;;;20.72;93.01
21086;BME280;34247;50.064;19.970;2022-08-03T02:40:57;99516.69;;;20.65;92.90
21086;BME280;34247;50.064;19.970;2022-08-03T02:42:05;99516.84;;;20.63;92.98
21086;BME280;34247;50.064;19.970;2022-08-03T02:43:20;99529.84;;;20.68;93.04
21086;BME280;34247;50.064;19.970;2022-08-03T02:44:28;99523.59;;;20.68;93.01
21086;BME280;34247;50.064;19.970;2022-08-03T02:45:43;99529.66;;;20.70;93.20
21086;BME280;34247;50.064;19.970;2022-08-03T02:46:54;99494.56;;;20.53;92.92
21086;BME280;34247;50.064;19.970;2022-08-03T02:48:04;99529.66;;;20.70;92.72
21086;BME280;34247;50.064;19.970;2022-08-03T02:49:13;99519.69;;;20.62;92.94
21086;BME280;34247;50.064;19.970;2022-08-03T02:50:40;99524.25;;;20.61;92.24
21086;BME280;34247;50.064;19.970;2022-08-03T02:51:48;99519.50;;;20.55;92.56
21086;BME280;34247;50.064;19.970;2022-08-03T02:52:56;99518.84;;;20.53;92.57
21086;BME280;34247;50.064;19.970;2022-08-03T02:54:03;99524.72;;;20.57;92.62
21086;BME280;34247;50.064;19.970;2022-08-03T02:55:10;99521.19;;;20.56;92.46
21086;BME280;34247;50.064;19.970;2022-08-03T02:56:16;99523.75;;;20.58;92.28
21086;BME280;34247;50.064;19.970;2022-08-03T02:57:24;99526.59;;;20.56;92.20
21086;BME280;34247;50.064;19.970;2022-08-03T02:58:31;99527.44;;;20.57;92.20
21086;BME280;34247;50.064;19.970;2022-08-03T02:59:37;99531.13;;;20.56;92.10
21086;BME280;34247;50.064;19.970;2022-08-03T03:00:44;99518.00;;;20.53;92.16
21086;BME280;34247;50.064;19.970;2022-08-03T03:01:49;99524.91;;;20.55;91.99
21086;BME280;34247;50.064;19.970;2022-08-03T03:03:00;99525.75;;;20.56;92.09
21086;BME280;34247;50.064;19.970;2022-08-03T03:04:06;99500.38;;;20.41;92.04
21086;BME280;34247;50.064;19.970;2022-08-03T03:05:15;99521.19;;;20.56;92.14
21086;BME280;34247;50.064;19.970;2022-08-03T03:06:41;99522.91;;;20.57;92.12
21086;BME280;34247;50.064;19.970;2022-08-03T03:07:49;99522.91;;;20.57;92.05
21086;BME280;34247;50.064;19.970;2022-08-03T03:08:56;99532.81;;;20.57;91.93
21086;BME280;34247;50.064;19.970;2022-08-03T03:10:03;99526.91;;;20.53;92.02
21086;BME280;34247;50.064;19.970;2022-08-03T03:11:09;99531.66;;;20.51;91.77
21086;BME280;34247;50.064;19.970;2022-08-03T03:12:16;99527.25;;;20.50;91.90
21086;BME280;34247;50.064;19.970;2022-08-03T03:13:21;99529.13;;;20.50;91.67
21086;BME280;34247;50.064;19.970;2022-08-03T03:14:26;99527.41;;;20.49;91.90
21086;BME280;34247;50.064;19.970;2022-08-03T03:15:38;99536.66;;;20.46;91.94
21086;BME280;34247;50.064;19.970;2022-08-03T03:16:46;99534.97;;;20.45;91.79
21086;BME280;34247;50.064;19.970;2022-08-03T03:18:00;99534.97;;;20.45;91.89
21086;BME280;34247;50.064;19.970;2022-08-03T03:19:07;99531.44;;;20.45;91.82
21086;BME280;34247;50.064;19.970;2022-08-03T03:20:14;99525.81;;;20.38;91.65
21086;BME280;34247;50.064;19.970;2022-08-03T03:21:34;99536.84;;;20.45;91.34
21086;BME280;34247;50.064;19.970;2022-08-03T03:22:40;99539.53;;;20.45;91.20
21086;BME280;34247;50.064;19.970;2022-08-03T03:23:48;99537.81;;;20.44;91.16
21086;BME280;34247;50.064;19.970;2022-08-03T03:24:53;99529.84;;;20.42;91.01
21086;BME280;34247;50.064;19.970;2022-08-03T03:25:58;99536.44;;;20.39;90.72
21086;BME280;34247;50.064;19.970;2022-08-03T03:27:03;99536.06;;;20.34;90.77
21086;BME280;34247;50.064;19.970;2022-08-03T03:28:09;99536.72;;;20.28;91.21
21086;BME280;34247;50.064;19.970;2022-08-03T03:29:15;99527.59;;;20.21;91.22
21086;BME280;34247;50.064;19.970;2022-08-03T03:30:19;99532.66;;;20.24;90.98
21086;BME280;34247;50.064;19.970;2022-08-03T03:31:23;99536.66;;;20.20;91.25
21086;BME280;34247;50.064;19.970;2022-08-03T03:32:28;99535.81;;;20.20;91.35
21086;BME280;34247;50.064;19.970;2022-08-03T03:33:34;99537.00;;;20.17;91.46
21086;BME280;34247;50.064;19.970;2022-08-03T03:34:39;99537.53;;;20.21;91.43
21086;BME280;34247;50.064;19.970;2022-08-03T03:35:46;99541.91;;;20.22;91.23
21086;BME280;34247;50.064;19.970;2022-08-03T03:36:51;99534.97;;;20.19;91.22
21086;BME280;34247;50.064;19.970;2022-08-03T03:37:56;99549.00;;;20.23;91.24
21086;BME280;34247;50.064;19.970;2022-08-03T03:39:00;99537.19;;;20.24;91.08
21086;BME280;34247;50.064;19.970;2022-08-03T03:40:18;99538.88;;;20.25;91.03
21086;BME280;34247;50.064;19.970;2022-08-03T03:41:23;99539.72;;;20.25;90.89
21086;BME280;34247;50.064;19.970;2022-08-03T03:42:27;99533.50;;;20.25;90.72
21086;BME280;34247;50.064;19.970;2022-08-03T03:43:31;99532.66;;;20.24;90.76
21086;BME280;34247;50.064;19.970;2022-08-03T03:44:35;99538.72;;;20.26;90.64
21086;BME280;34247;50.064;19.970;2022-08-03T03:45:40;99542.59;;;20.24;90.69
21086;BME280;34247;50.064;19.970;2022-08-03T03:46:47;99542.59;;;20.24;90.61
21086;BME280;34247;50.064;19.970;2022-08-03T03:47:51;99542.75;;;20.22;91.06
21086;BME280;34247;50.064;19.970;2022-08-03T03:48:55;99538.38;;;20.21;91.00
21086;BME280;34247;50.064;19.970;2022-08-03T03:50:02;99549.66;;;20.25;90.87
21086;BME280;34247;50.064;19.970;2022-08-03T03:51:07;99546.97;;;20.25;90.67
21086;BME280;34247;50.064;19.970;2022-08-03T03:52:12;99546.81;;;20.26;90.59
21086;BME280;34247;50.064;19.970;2022-08-03T03:53:16;99540.91;;;20.23;90.39
21086;BME280;34247;50.064;19.970;2022-08-03T03:54:20;99557.75;;;20.25;90.33
21086;BME280;34247;50.064;19.970;2022-08-03T03:55:28;99549.66;;;20.25;90.35
21086;BME280;34247;50.064;19.970;2022-08-03T03:56:32;99564.00;;;20.25;90.64
21086;BME280;34247;50.064;19.970;2022-08-03T03:57:37;99559.44;;;20.26;90.45
21086;BME280;34247;50.064;19.970;2022-08-03T03:58:40;99555.06;;;20.25;90.52
21086;BME280;34247;50.064;19.970;2022-08-03T03:59:44;99561.84;;;20.29;90.29
21086;BME280;34247;50.064;19.970;2022-08-03T04:00:49;99563.81;;;20.27;90.09
21086;BME280;34247;50.064;19.970;2022-08-03T04:01:53;99558.44;;;20.27;90.44
21086;BME280;34247;50.064;19.970;2022-08-03T04:03:01;99552.38;;;20.25;90.40
21086;BME280;34247;50.064;19.970;2022-08-03T04:04:05;99565.38;;;20.29;90.49
21086;BME280;34247;50.064;19.970;2022-08-03T04:05:28;99564.38;;;20.30;90.40
21086;BME280;34247;50.064;19.970;2022-08-03T04:06:50;99564.19;;;20.32;90.35
21086;BME280;34247;50.064;19.970;2022-08-03T04:08:17;99555.25;;;20.31;90.39
21086;BME280;34247;50.064;19.970;2022-08-03T04:09:42;99568.56;;;20.33;90.48
21086;BME280;34247;50.064;19.970;2022-08-03T04:12:37;99558.44;;;20.27;90.47
21086;BME280;34247;50.064;19.970;2022-08-03T04:14:08;99562.88;;;20.36;90.62
21086;BME280;34247;50.064;19.970;2022-08-03T04:15:15;99560.66;;;20.31;90.40
21086;BME280;34247;50.064;19.970;2022-08-03T04:16:25;99567.94;;;20.39;90.49
21086;BME280;34247;50.064;19.970;2022-08-03T04:17:31;99569.63;;;20.40;90.37
21086;BME280;34247;50.064;19.970;2022-08-03T04:18:40;99571.31;;;20.41;90.43
21086;BME280;34247;50.064;19.970;2022-08-03T04:19:51;99572.03;;;20.43;90.68
21086;BME280;34247;50.064;19.970;2022-08-03T04:21:02;99573.00;;;20.42;90.69
21086;BME280;34247;50.064;19.970;2022-08-03T04:22:11;99576.44;;;20.44;90.52
21086;BME280;34247;50.064;19.970;2022-08-03T04:23:21;99548.50;;;20.27;90.56
21086;BME280;34247;50.064;19.970;2022-08-03T04:24:34;99566.50;;;20.45;90.75
21086;BME280;34247;50.064;19.970;2022-08-03T04:25:42;99571.72;;;20.46;90.62
21086;BME280;34247;50.064;19.970;2022-08-03T04:26:49;99575.25;;;20.47;90.59
21086;BME280;34247;50.064;19.970;2022-08-03T04:27:58;99569.56;;;20.50;90.55
21086;BME280;34247;50.064;19.970;2022-08-03T04:29:25;99573.78;;;20.52;90.55
21086;BME280;34247;50.064;19.970;2022-08-03T04:30:35;99578.16;;;20.53;90.48
21086;BME280;34247;50.064;19.970;2022-08-03T04:31:44;99577.16;;;20.54;90.59
21086;BME280;34247;50.064;19.970;2022-08-03T04:32:50;99579.66;;;20.56;90.64
21086;BME280;34247;50.064;19.970;2022-08-03T04:33:55;99583.06;;;20.58;90.64
21086;BME280;34247;50.064;19.970;2022-08-03T04:35:00;99575.31;;;20.63;90.75
21086;BME280;34247;50.064;19.970;2022-08-03T04:36:08;99572.50;;;20.64;90.54
21086;BME280;34247;50.064;19.970;2022-08-03T04:37:25;99571.13;;;20.69;90.57
21086;BME280;34247;50.064;19.970;2022-08-03T04:38:53;99581.44;;;20.73;90.50
21086;BME280;34247;50.064;19.970;2022-08-03T04:40:02;99587.53;;;20.75;90.34
21086;BME280;34247;50.064;19.970;2022-08-03T04:41:09;99582.13;;;20.75;90.34
21086;BME280;34247;50.064;19.970;2022-08-03T04:42:15;99585.66;;;20.76;90.20
21086;BME280;34247;50.064;19.970;2022-08-03T04:43:23;99587.34;;;20.77;90.17
21086;BME280;34247;50.064;19.970;2022-08-03T04:44:29;99580.81;;;20.79;90.31
21086;BME280;34247;50.064;19.970;2022-08-03T04:45:35;99587.53;;;20.83;90.27
21086;BME280;34247;50.064;19.970;2022-08-03T04:46:41;99590.78;;;20.87;90.33
21086;BME280;34247;50.064;19.970;2022-08-03T04:47:56;99591.13;;;20.92;89.92
21086;BME280;34247;50.064;19.970;2022-08-03T04:49:01;99593.50;;;20.95;89.71
21086;BME280;34247;50.064;19.970;2022-08-03T04:50:06;99595.69;;;21.00;89.60
21086;BME280;34247;50.064;19.970;2022-08-03T04:51:16;99605.16;;;21.04;89.30
21086;BME280;34247;50.064;19.970;2022-08-03T04:52:20;99585.94;;;21.07;89.19
21086;BME280;34247;50.064;19.970;2022-08-03T04:53:25;99596.59;;;21.08;88.75
21086;BME280;34247;50.064;19.970;2022-08-03T04:54:29;99597.75;;;21.14;88.59
21086;BME280;34247;50.064;19.970;2022-08-03T04:55:34;99601.28;;;21.14;88.35
21086;BME280;34247;50.064;19.970;2022-08-03T04:56:40;99585.78;;;21.08;88.41
21086;BME280;34247;50.064;19.970;2022-08-03T04:57:44;99586.31;;;21.20;88.41
21086;BME280;34247;50.064;19.970;2022-08-03T04:58:48;99591.38;;;21.23;88.01
21086;BME280;34247;50.064;19.970;2022-08-03T04:59:53;99589.34;;;21.25;88.00
21086;BME280;34247;50.064;19.970;2022-08-03T05:01:05;99574.84;;;21.18;87.63
21086;BME280;34247;50.064;19.970;2022-08-03T05:02:09;99578.88;;;21.22;87.69
21086;BME280;34247;50.064;19.970;2022-08-03T05:03:13;99587.53;;;21.34;87.49
21086;BME280;34247;50.064;19.970;2022-08-03T05:04:26;99592.47;;;21.38;87.29
21086;BME280;34247;50.064;19.970;2022-08-03T05:05:30;99597.50;;;21.41;87.27
21086;BME280;34247;50.064;19.970;2022-08-03T05:06:53;99599.56;;;21.47;87.08
21086;BME280;34247;50.064;19.970;2022-08-03T05:07:58;99599.19;;;21.51;86.97
21086;BME280;34247;50.064;19.970;2022-08-03T05:09:05;99594.16;;;21.56;86.90
21086;BME280;34247;50.064;19.970;2022-08-03T05:10:12;99597.03;;;21.62;86.77
21086;BME280;34247;50.064;19.970;2022-08-03T05:11:19;99594.50;;;21.69;86.23
21086;BME280;34247;50.064;19.970;2022-08-03T05:12:23;99588.25;;;21.77;86.05
21086;BME280;34247;50.064;19.970;2022-08-03T05:13:29;99596.88;;;21.80;85.49
21086;BME280;34247;50.064;19.970;2022-08-03T05:14:35;99596.03;;;21.88;85.24
21086;BME280;34247;50.064;19.970;2022-08-03T05:15:42;99566.16;;;21.81;84.94
21086;BME280;34247;50.064;19.970;2022-08-03T05:16:46;99593.31;;;22.04;84.56
21086;BME280;34247;50.064;19.970;2022-08-03T05:17:50;99595.19;;;22.12;84.39
21086;BME280;34247;50.064;19.970;2022-08-03T05:18:53;99592.66;;;22.18;83.81
21086;BME280;34247;50.064;19.970;2022-08-03T05:19:57;99589.25;;;22.24;83.45
21086;BME280;34247;50.064;19.970;2022-08-03T05:21:01;99589.91;;;22.35;82.70
21086;BME280;34247;50.064;19.970;2022-08-03T05:22:05;99582.13;;;22.40;82.26
21086;BME280;34247;50.064;19.970;2022-08-03T05:23:10;99584.44;;;22.51;81.70
21086;BME280;34247;50.064;19.970;2022-08-03T05:24:14;99586.78;;;22.62;81.33
21086;BME280;34247;50.064;19.970;2022-08-03T05:25:18;99589.28;;;22.72;80.69
21086;BME280;34247;50.064;19.970;2022-08-03T05:26:26;99578.25;;;22.73;80.40
21086;BME280;34247;50.064;19.970;2022-08-03T05:27:30;99590.75;;;22.91;80.01
21086;BME280;34247;50.064;19.970;2022-08-03T05:28:34;99591.38;;;23.01;79.63
21086;BME280;34247;50.064;19.970;2022-08-03T05:29:38;99590.28;;;23.10;79.27
21086;BME280;34247;50.064;19.970;2022-08-03T05:30:42;99592.59;;;23.21;78.91
21086;BME280;34247;50.064;19.970;2022-08-03T05:31:46;99586.13;;;23.30;78.42
21086;BME280;34247;50.064;19.970;2022-08-03T05:32:50;99584.88;;;23.41;78.24
21086;BME280;34247;50.064;19.970;2022-08-03T05:33:56;99585.28;;;23.53;77.50
21086;BME280;34247;50.064;19.970;2022-08-03T05:35:00;99591.34;;;23.63;77.00
21086;BME280;34247;50.064;19.970;2022-08-03T05:36:24;99582.44;;;23.77;76.13
21086;BME280;34247;50.064;19.970;2022-08-03T05:37:28;99586.56;;;23.88;75.38
21086;BME280;34247;50.064;19.970;2022-08-03T05:38:32;99588.16;;;23.97;75.23
21086;BME280;34247;50.064;19.970;2022-08-03T05:39:38;99590.81;;;24.05;74.50
21086;BME280;34247;50.064;19.970;2022-08-03T05:40:41;99562.91;;;23.97;74.16
21086;BME280;34247;50.064;19.970;2022-08-03T05:42:01;99594.19;;;24.22;73.29
21086;BME280;34247;50.064;19.970;2022-08-03T05:43:05;99593.66;;;24.27;72.48
21086;BME280;34247;50.064;19.970;2022-08-03T05:44:09;99591.06;;;24.33;71.89
21086;BME280;34247;50.064;19.970;2022-08-03T05:45:13;99588.44;;;24.40;72.20
21086;BME280;34247;50.064;19.970;2022-08-03T05:46:17;99589.38;;;24.47;71.58
21086;BME280;34247;50.064;19.970;2022-08-03T05:47:21;99586.94;;;24.52;70.95
21086;BME280;34247;50.064;19.970;2022-08-03T05:48:25;99580.22;;;24.48;70.32
21086;BME280;34247;50.064;19.970;2022-08-03T05:49:29;99594.25;;;24.66;70.57
21086;BME280;34247;50.064;19.970;2022-08-03T05:50:35;99595.19;;;24.73;70.03
21086;BME280;34247;50.064;19.970;2022-08-03T05:51:45;99586.94;;;24.82;69.58
21086;BME280;34247;50.064;19.970;2022-08-03T05:53:02;99590.22;;;24.92;68.67
21086;BME280;34247;50.064;19.970;2022-08-03T05:54:06;99588.22;;;25.00;68.96
21086;BME280;34247;50.064;19.970;2022-08-03T05:55:11;99582.59;;;25.02;68.09
21086;BME280;34247;50.064;19.970;2022-08-03T05:56:16;99582.13;;;25.13;68.20
21086;BME280;34247;50.064;19.970;2022-08-03T05:57:20;99586.88;;;25.26;67.64
21086;BME280;34247;50.064;19.970;2022-08-03T05:58:24;99592.84;;;25.36;66.95
21086;BME280;34247;50.064;19.970;2022-08-03T05:59:32;99585.97;;;25.40;66.37
21086;BME280;34247;50.064;19.970;2022-08-03T06:00:40;99573.16;;;25.34;66.25
21086;BME280;34247;50.064;19.970;2022-08-03T06:01:44;99596.59;;;25.35;65.79
21086;BME280;34247;50.064;19.970;2022-08-03T06:02:49;99593.06;;;25.20;66.04
21086;BME280;34247;50.064;19.970;2022-08-03T06:03:53;99588.59;;;25.12;66.77
21086;BME280;34247;50.064;19.970;2022-08-03T06:04:57;99581.75;;;25.01;67.18
21086;BME280;34247;50.064;19.970;2022-08-03T06:06:01;99592.16;;;24.98;67.52
21086;BME280;34247;50.064;19.970;2022-08-03T06:07:05;99590.38;;;24.90;67.65
21086;BME280;34247;50.064;19.970;2022-08-03T06:08:09;99589.44;;;24.83;68.14